Hovedside
METAR-TAF:

METAR-TAF

Lufthavner :

Hasvik, Norge

Hasvik lufthavn

breddegrad: 70-29N, lengdegrad: 022-09E, høyde over havet: 10 m

Gjeldene værobservasjon

Denne rapporten ble laget for 21 minutter siden, klokken 13:20 UTC
Vind 6 kt fra Øst
Temperatur -4°C
Luftfuktighet 54%
Trykk 1046 hPa
Sikt 10 km eller mer
ingen skyer under 1500 m og ingen bygeskyer

METAR: ENHK 251320Z 09006KT CAVOK M04/M12 Q1046

Tid: 14:41 (13:41 UTC)


TAF: fraværende

Værobservasjoner og værvarsel for over 4000 flyplasser (METAR- og TAF-rapporter).

Tilgjengelige stasjoner er representert av de røde og gule prikkene på kartet.

Hold musepekeren over prikken for å se navnet på stasjonen.

Klikk så for å se værobservasjoner og -varsler.

For å forandre kartet kan du klikke på den grønne knappen med svart kryss for å zoome inn, på den grønne knappen med strek for å zoome ut, eller på de grønne pilene for å se tilstøtende kart.


METAR-TAF: